createdAt,value
2022-08-07T00:00:23.832Z,10.44
2022-08-07T00:02:51.032Z,10.39
2022-08-07T00:05:20.004Z,10.36
2022-08-07T00:07:46.869Z,10.33
2022-08-07T00:10:25.896Z,10.32
2022-08-07T00:13:00.346Z,10.30
2022-08-07T00:15:37.967Z,10.27
2022-08-07T00:18:18.827Z,10.27
2022-08-07T00:20:47.725Z,10.29
2022-08-07T00:23:14.847Z,10.26
2022-08-07T00:25:43.460Z,10.23
2022-08-07T00:28:12.261Z,10.20
2022-08-07T00:30:42.128Z,10.19
2022-08-07T00:33:08.620Z,10.17
2022-08-07T00:35:36.714Z,10.18
2022-08-07T00:38:03.677Z,10.18
2022-08-07T00:40:36.281Z,10.17
2022-08-07T00:43:10.011Z,10.17
2022-08-07T00:45:38.207Z,10.14
2022-08-07T00:48:08.136Z,10.15
2022-08-07T00:50:46.105Z,10.12
2022-08-07T00:53:17.534Z,10.11
2022-08-07T00:56:00.524Z,10.13
2022-08-07T00:58:28.810Z,10.12
2022-08-07T01:00:55.138Z,10.13
2022-08-07T01:03:25.479Z,10.11
2022-08-07T01:06:08.257Z,10.07
2022-08-07T01:08:34.614Z,10.05
2022-08-07T01:12:04.388Z,10.03
2022-08-07T01:13:56.011Z,10.01
2022-08-07T01:16:30.230Z,9.99
2022-08-07T01:18:57.614Z,9.98
2022-08-07T01:21:27.076Z,9.94
2022-08-07T01:23:56.610Z,9.90
2022-08-07T01:26:23.383Z,9.87
2022-08-07T01:28:53.840Z,9.87
2022-08-07T01:31:20.711Z,9.86
2022-08-07T01:33:56.141Z,9.85
2022-08-07T01:36:33.796Z,9.80
2022-08-07T01:39:04.135Z,9.79
2022-08-07T01:41:37.790Z,9.77
2022-08-07T01:44:04.989Z,9.76
2022-08-07T01:46:31.526Z,9.73
2022-08-07T01:48:59.808Z,9.73
2022-08-07T01:52:02.570Z,9.73
2022-08-07T01:54:33.310Z,9.69
2022-08-07T01:57:03.849Z,9.66
2022-08-07T01:59:33.909Z,9.60
2022-08-07T02:02:06.433Z,9.55
2022-08-07T02:04:55.714Z,9.50
2022-08-07T02:07:24.021Z,9.48
2022-08-07T02:10:03.847Z,9.44
2022-08-07T02:12:33.220Z,9.45
2022-08-07T02:15:00.933Z,9.42
2022-08-07T02:17:34.000Z,9.40
2022-08-07T02:20:04.606Z,9.36
2022-08-07T02:22:38.183Z,9.34
2022-08-07T02:25:13.872Z,9.34
2022-08-07T02:27:44.255Z,9.33
2022-08-07T02:30:18.977Z,9.29
2022-08-07T02:33:00.991Z,9.26
2022-08-07T02:36:29.246Z,9.27
2022-08-07T02:38:22.828Z,9.28
2022-08-07T02:40:56.036Z,9.31
2022-08-07T02:43:22.624Z,9.35
2022-08-07T02:45:58.046Z,9.35
2022-08-07T02:48:25.955Z,9.34
2022-08-07T02:50:56.068Z,9.31
2022-08-07T02:53:27.492Z,9.29
2022-08-07T02:56:04.196Z,9.27
2022-08-07T02:58:33.229Z,9.25
2022-08-07T03:01:01.935Z,9.23
2022-08-07T03:03:49.423Z,9.21
2022-08-07T03:06:25.959Z,9.16
2022-08-07T03:09:00.815Z,9.11
2022-08-07T03:11:28.115Z,9.08
2022-08-07T03:13:57.668Z,9.07
2022-08-07T03:16:28.095Z,9.07
2022-08-07T03:18:54.655Z,9.05
2022-08-07T03:21:22.527Z,9.03
2022-08-07T03:24:19.761Z,9.00
2022-08-07T03:26:50.912Z,9.01
2022-08-07T03:29:18.692Z,8.97
2022-08-07T03:31:49.958Z,8.96
2022-08-07T03:34:18.860Z,8.94
2022-08-07T03:36:50.608Z,8.96
2022-08-07T03:39:17.665Z,8.94
2022-08-07T03:42:07.343Z,8.93
2022-08-07T03:44:35.855Z,8.92
2022-08-07T03:47:13.751Z,8.94
2022-08-07T03:49:41.915Z,8.94
2022-08-07T03:52:22.819Z,8.94
2022-08-07T03:54:57.338Z,8.92
2022-08-07T03:59:06.835Z,8.91
2022-08-07T04:00:21.129Z,8.92
2022-08-07T04:02:56.722Z,8.92
2022-08-07T04:05:28.636Z,8.91
2022-08-07T04:08:05.639Z,8.92
2022-08-07T04:10:32.644Z,8.94
2022-08-07T04:13:07.535Z,8.97
2022-08-07T04:15:42.944Z,9.00
2022-08-07T04:18:57.225Z,9.03
2022-08-07T04:20:57.652Z,9.06
2022-08-07T04:23:25.146Z,9.09
2022-08-07T04:26:10.457Z,9.12
2022-08-07T04:28:37.939Z,9.15
2022-08-07T04:31:04.590Z,9.17
2022-08-07T04:33:35.365Z,9.20
2022-08-07T04:36:02.238Z,9.25
2022-08-07T04:38:33.103Z,9.33
2022-08-07T04:41:00.458Z,9.41
2022-08-07T04:44:14.560Z,9.47
2022-08-07T04:46:25.855Z,9.56
2022-08-07T04:49:07.407Z,9.65
2022-08-07T04:51:52.513Z,9.74
2022-08-07T04:54:30.244Z,9.85
2022-08-07T04:58:15.416Z,9.92
2022-08-07T05:00:14.574Z,10.02
2022-08-07T05:03:17.028Z,10.10
2022-08-07T05:06:19.195Z,10.21
2022-08-07T05:09:01.585Z,10.30
2022-08-07T05:11:57.388Z,10.40
2022-08-07T05:14:53.261Z,10.56
2022-08-07T05:17:11.904Z,10.72
2022-08-07T05:19:44.735Z,10.90
2022-08-07T05:22:12.911Z,11.04
2022-08-07T05:24:55.533Z,11.20
2022-08-07T05:28:02.942Z,11.35
2022-08-07T05:30:10.649Z,11.55
2022-08-07T05:32:39.352Z,11.66
2022-08-07T05:35:07.453Z,11.69
2022-08-07T05:37:37.716Z,11.67
2022-08-07T05:40:17.626Z,11.66
2022-08-07T05:42:55.550Z,11.65
2022-08-07T05:45:28.065Z,11.70
2022-08-07T05:48:10.557Z,11.85
2022-08-07T05:50:39.343Z,11.96
2022-08-07T05:54:13.024Z,12.21
2022-08-07T05:56:02.888Z,12.50
2022-08-07T05:58:36.943Z,12.77
2022-08-07T06:01:05.037Z,13.05
2022-08-07T06:03:56.915Z,13.46
2022-08-07T06:06:19.891Z,13.90
2022-08-07T06:08:47.041Z,14.19
2022-08-07T06:11:17.965Z,14.56
2022-08-07T06:14:12.752Z,14.64
2022-08-07T06:16:35.047Z,14.69
2022-08-07T06:19:02.998Z,14.76
2022-08-07T06:22:14.544Z,14.76
2022-08-07T06:24:46.014Z,14.71
2022-08-07T06:27:06.159Z,14.75
2022-08-07T06:29:34.868Z,14.96
2022-08-07T06:32:05.270Z,15.09
2022-08-07T06:34:31.614Z,15.27
2022-08-07T06:36:58.023Z,15.27
2022-08-07T06:40:16.244Z,15.34
2022-08-07T06:42:13.703Z,15.35
2022-08-07T06:44:40.698Z,15.52
2022-08-07T06:47:10.623Z,15.75
2022-08-07T06:49:50.969Z,16.05
2022-08-07T06:52:31.290Z,16.09
2022-08-07T06:55:32.993Z,15.90
2022-08-07T06:57:56.847Z,15.88
2022-08-07T07:00:24.441Z,15.83
2022-08-07T07:02:54.157Z,15.87
2022-08-07T07:06:05.691Z,16.09
2022-08-07T07:08:18.563Z,16.32
2022-08-07T07:10:57.124Z,16.52
2022-08-07T07:13:57.462Z,16.46
2022-08-07T07:16:27.642Z,16.28
2022-08-07T07:18:59.559Z,16.03
2022-08-07T07:22:05.490Z,15.94
2022-08-07T07:24:16.754Z,15.99
2022-08-07T07:26:49.699Z,16.32
2022-08-07T07:29:56.058Z,16.65
2022-08-07T07:32:08.647Z,16.98
2022-08-07T07:34:36.308Z,17.28
2022-08-07T07:37:21.747Z,17.53
2022-08-07T07:39:56.018Z,17.67
2022-08-07T07:42:25.767Z,17.74
2022-08-07T07:45:00.316Z,17.92
2022-08-07T07:47:27.736Z,17.84
2022-08-07T07:50:33.099Z,18.03
2022-08-07T07:52:41.649Z,18.22
2022-08-07T07:55:09.203Z,18.23
2022-08-07T07:57:50.277Z,18.31
2022-08-07T08:00:29.145Z,18.44
2022-08-07T08:03:04.870Z,18.37
2022-08-07T08:05:51.049Z,18.50
2022-08-07T08:08:35.927Z,18.40
2022-08-07T08:11:08.562Z,18.42
2022-08-07T08:13:36.751Z,18.66
2022-08-07T08:16:20.715Z,18.85
2022-08-07T08:18:54.619Z,19.03
2022-08-07T08:22:00.471Z,18.80
2022-08-07T08:24:57.075Z,18.67
2022-08-07T08:27:35.977Z,18.88
2022-08-07T08:30:05.018Z,18.98
2022-08-07T08:32:39.274Z,19.15
2022-08-07T08:35:08.031Z,19.40
2022-08-07T08:38:01.012Z,19.40
2022-08-07T08:40:40.327Z,19.46
2022-08-07T08:43:42.431Z,19.82
2022-08-07T08:46:15.365Z,20.12
2022-08-07T08:48:50.900Z,20.50
2022-08-07T08:52:12.682Z,20.91
2022-08-07T08:54:35.067Z,21.05
2022-08-07T08:57:04.217Z,21.06
2022-08-07T08:59:47.867Z,20.96
2022-08-07T09:02:38.055Z,20.51
2022-08-07T09:05:04.482Z,20.21
2022-08-07T09:07:46.163Z,19.91
2022-08-07T09:10:27.033Z,19.59
2022-08-07T09:13:02.187Z,19.30
2022-08-07T09:16:24.319Z,19.11
2022-08-07T09:18:23.377Z,18.89
2022-08-07T09:21:13.809Z,18.81
2022-08-07T09:24:31.770Z,18.91
2022-08-07T09:27:13.511Z,18.89
2022-08-07T09:30:05.593Z,18.92
2022-08-07T09:32:32.340Z,19.13
2022-08-07T09:35:04.809Z,19.27
2022-08-07T09:37:58.310Z,19.44
2022-08-07T09:40:30.039Z,19.69
2022-08-07T09:43:00.264Z,19.80
2022-08-07T09:47:25.812Z,19.88
2022-08-07T09:48:20.532Z,19.91
2022-08-07T09:51:02.577Z,19.98
2022-08-07T09:53:40.455Z,20.08
2022-08-07T09:56:19.746Z,20.21
2022-08-07T09:59:00.528Z,20.35
2022-08-07T10:01:50.954Z,20.49
2022-08-07T10:04:39.291Z,20.70
2022-08-07T10:07:31.723Z,20.93
2022-08-07T10:10:01.131Z,21.15
2022-08-07T10:13:10.992Z,21.40
2022-08-07T10:15:44.803Z,21.46
2022-08-07T10:18:20.303Z,21.35
2022-08-07T10:21:19.799Z,21.34
2022-08-07T10:24:21.617Z,21.02
2022-08-07T10:27:03.053Z,21.00
2022-08-07T10:29:45.628Z,20.73
2022-08-07T10:32:16.441Z,20.77
2022-08-07T10:35:04.118Z,20.88
2022-08-07T10:37:48.601Z,21.13
2022-08-07T10:40:30.050Z,21.14
2022-08-07T10:43:02.656Z,20.92
2022-08-07T10:45:45.295Z,20.88
2022-08-07T10:48:25.938Z,21.08
2022-08-07T10:51:16.838Z,21.26
2022-08-07T10:54:08.303Z,21.20
2022-08-07T10:56:54.892Z,20.94
2022-08-07T10:59:30.477Z,20.99
2022-08-07T11:02:33.611Z,21.26
2022-08-07T11:05:10.151Z,21.43
2022-08-07T11:07:59.206Z,22.23
2022-08-07T11:10:27.710Z,22.71
2022-08-07T11:14:42.344Z,23.32
2022-08-07T11:15:57.264Z,23.55
2022-08-07T11:18:32.626Z,22.80
2022-08-07T11:21:25.068Z,21.84
2022-08-07T11:24:14.852Z,21.06
2022-08-07T11:26:51.073Z,20.44
2022-08-07T11:29:40.911Z,20.06
2022-08-07T11:32:11.660Z,19.91
2022-08-07T11:34:56.322Z,19.80
2022-08-07T11:37:58.019Z,19.79
2022-08-07T11:40:35.824Z,19.57
2022-08-07T11:43:15.598Z,19.38
2022-08-07T11:45:53.122Z,19.23
2022-08-07T11:48:35.354Z,18.97
2022-08-07T11:51:11.960Z,18.78
2022-08-07T11:54:02.368Z,18.61
2022-08-07T11:56:39.219Z,18.64
2022-08-07T12:00:11.639Z,18.71
2022-08-07T12:02:31.273Z,18.75
2022-08-07T12:05:09.032Z,18.76
2022-08-07T12:07:53.690Z,18.89
2022-08-07T12:10:41.963Z,18.84
2022-08-07T12:13:17.212Z,18.87
2022-08-07T12:16:06.769Z,18.86
2022-08-07T12:18:45.128Z,19.03
2022-08-07T12:21:14.929Z,19.20
2022-08-07T12:24:06.352Z,19.45
2022-08-07T12:26:34.468Z,19.65
2022-08-07T12:29:37.594Z,19.87
2022-08-07T12:32:14.404Z,20.20
2022-08-07T12:34:49.374Z,20.38
2022-08-07T12:37:28.322Z,20.67
2022-08-07T12:40:43.677Z,20.85
2022-08-07T12:43:00.658Z,20.99
2022-08-07T12:45:33.443Z,21.12
2022-08-07T12:48:27.940Z,21.16
2022-08-07T12:51:17.688Z,21.14
2022-08-07T12:54:03.117Z,21.21
2022-08-07T12:56:50.934Z,21.92
2022-08-07T12:59:23.112Z,23.00
2022-08-07T13:02:09.896Z,23.13
2022-08-07T13:05:01.222Z,22.89
2022-08-07T13:08:14.054Z,22.35
2022-08-07T13:10:51.582Z,22.14
2022-08-07T13:13:49.096Z,21.88
2022-08-07T13:16:22.709Z,22.11
2022-08-07T13:19:11.408Z,22.55
2022-08-07T13:21:59.763Z,23.16
2022-08-07T13:24:37.053Z,24.62
2022-08-07T13:27:13.170Z,25.56
2022-08-07T13:29:57.883Z,26.31
2022-08-07T13:32:32.507Z,26.08
2022-08-07T13:35:08.772Z,26.57
2022-08-07T13:37:59.063Z,26.56
2022-08-07T13:40:36.488Z,25.42
2022-08-07T13:43:11.773Z,24.80
2022-08-07T13:46:11.494Z,25.47
2022-08-07T13:48:34.248Z,25.77
2022-08-07T13:51:02.612Z,26.07
2022-08-07T13:53:59.313Z,27.14
2022-08-07T13:56:40.505Z,27.78
2022-08-07T13:59:20.740Z,27.74
2022-08-07T14:02:04.162Z,27.14
2022-08-07T14:04:35.698Z,26.52
2022-08-07T14:07:05.866Z,26.90
2022-08-07T14:10:12.169Z,25.70
2022-08-07T14:12:30.972Z,25.56
2022-08-07T14:15:04.683Z,25.46
2022-08-07T14:18:23.706Z,25.04
2022-08-07T14:20:41.161Z,24.60
2022-08-07T14:23:58.565Z,23.98
2022-08-07T14:26:30.340Z,23.41
2022-08-07T14:29:06.086Z,22.98
2022-08-07T14:31:57.804Z,22.94
2022-08-07T14:34:29.528Z,23.14
2022-08-07T14:36:56.691Z,23.66
2022-08-07T14:40:17.345Z,23.95
2022-08-07T14:42:20.690Z,24.05
2022-08-07T14:44:52.247Z,24.34
2022-08-07T14:47:19.225Z,24.43
2022-08-07T14:49:56.703Z,24.22
2022-08-07T14:52:28.867Z,23.66
2022-08-07T14:54:58.550Z,23.09
2022-08-07T14:57:54.911Z,22.90
2022-08-07T15:00:12.567Z,23.19
2022-08-07T15:02:56.878Z,24.23
2022-08-07T15:05:24.073Z,25.10
2022-08-07T15:07:52.136Z,25.06
2022-08-07T15:10:26.533Z,24.62
2022-08-07T15:13:06.161Z,24.16
2022-08-07T15:15:38.835Z,24.38
2022-08-07T15:20:58.875Z,24.68
2022-08-07T15:25:02.097Z,23.94
2022-08-07T15:26:22.128Z,23.16
2022-08-07T15:28:55.520Z,22.56
2022-08-07T15:32:01.275Z,22.28
2022-08-07T15:34:15.024Z,22.13
2022-08-07T15:37:03.479Z,22.38
2022-08-07T15:39:57.439Z,22.78
2022-08-07T15:42:43.772Z,23.12
2022-08-07T15:45:55.528Z,23.06
2022-08-07T15:48:20.605Z,22.85
2022-08-07T15:51:01.530Z,22.50
2022-08-07T15:53:42.150Z,22.35
2022-08-07T15:56:21.383Z,22.15
2022-08-07T15:58:57.775Z,22.00
2022-08-07T16:01:39.169Z,21.68
2022-08-07T16:04:14.606Z,21.54
2022-08-07T16:06:58.077Z,21.53
2022-08-07T16:09:42.271Z,21.46
2022-08-07T16:12:30.676Z,21.29
2022-08-07T16:14:59.279Z,21.16
2022-08-07T16:18:02.821Z,21.15
2022-08-07T16:20:56.760Z,21.00
2022-08-07T16:23:58.422Z,20.77
2022-08-07T16:26:30.899Z,20.70
2022-08-07T16:30:07.633Z,20.86
2022-08-07T16:32:02.094Z,21.16
2022-08-07T16:34:50.879Z,21.56
2022-08-07T16:38:06.274Z,21.67
2022-08-07T16:40:30.818Z,21.67
2022-08-07T16:43:18.872Z,21.61
2022-08-07T16:46:33.574Z,21.46
2022-08-07T16:50:20.674Z,21.38
2022-08-07T16:52:01.847Z,21.13
2022-08-07T16:54:55.517Z,20.87
2022-08-07T16:58:01.885Z,20.69
2022-08-07T17:00:29.370Z,20.72
2022-08-07T17:03:17.497Z,21.06
2022-08-07T17:06:19.413Z,21.41
2022-08-07T17:09:09.787Z,21.55
2022-08-07T17:11:26.646Z,21.64
2022-08-07T17:14:18.991Z,21.55
2022-08-07T17:16:57.039Z,21.38
2022-08-07T17:20:01.736Z,21.05
2022-08-07T17:22:18.879Z,20.89
2022-08-07T17:25:15.393Z,20.85
2022-08-07T17:27:51.031Z,20.77
2022-08-07T17:30:20.566Z,20.67
2022-08-07T17:34:09.217Z,20.52
2022-08-07T17:36:00.687Z,20.35
2022-08-07T17:38:35.285Z,20.22
2022-08-07T17:42:02.257Z,20.08
2022-08-07T17:44:01.070Z,20.01
2022-08-07T17:46:34.360Z,19.91
2022-08-07T17:49:13.981Z,19.78
2022-08-07T17:52:00.368Z,19.65
2022-08-07T17:54:54.578Z,19.51
2022-08-07T17:57:31.992Z,19.38
2022-08-07T18:00:32.765Z,19.28
2022-08-07T18:03:09.094Z,19.15
2022-08-07T18:06:03.302Z,19.05
2022-08-07T18:08:31.065Z,18.96
2022-08-07T18:12:17.346Z,18.83
2022-08-07T18:14:10.255Z,18.70
2022-08-07T18:16:57.618Z,18.61
2022-08-07T18:21:10.003Z,18.51
2022-08-07T18:22:27.421Z,18.41
2022-08-07T18:25:01.547Z,18.36
2022-08-07T18:27:54.909Z,18.25
2022-08-07T18:30:31.691Z,18.15
2022-08-07T18:33:18.456Z,18.04
2022-08-07T18:35:51.790Z,17.92
2022-08-07T18:38:56.626Z,17.80
2022-08-07T18:41:16.880Z,17.67
2022-08-07T18:43:49.199Z,17.54
2022-08-07T18:46:24.727Z,17.45
2022-08-07T18:50:32.756Z,17.28
2022-08-07T18:52:34.632Z,17.11
2022-08-07T18:54:32.597Z,16.97
2022-08-07T18:57:29.737Z,16.83
2022-08-07T18:59:59.406Z,16.65
2022-08-07T19:02:36.846Z,16.52
2022-08-07T19:05:22.288Z,16.43
2022-08-07T19:07:57.413Z,16.31
2022-08-07T19:10:31.070Z,16.25
2022-08-07T19:13:10.140Z,16.15
2022-08-07T19:17:05.708Z,16.03
2022-08-07T19:19:08.158Z,15.90
2022-08-07T19:21:55.872Z,15.87
2022-08-07T19:24:46.294Z,15.79
2022-08-07T19:28:29.979Z,15.75
2022-08-07T19:31:02.070Z,15.66
2022-08-07T19:33:01.447Z,15.55
2022-08-07T19:35:37.664Z,15.38
2022-08-07T19:38:16.108Z,15.24
2022-08-07T19:40:50.758Z,15.05
2022-08-07T19:43:48.888Z,14.96
2022-08-07T19:46:26.301Z,14.95
2022-08-07T19:48:59.546Z,14.90
2022-08-07T19:51:52.187Z,14.91
2022-08-07T19:54:35.607Z,14.95
2022-08-07T19:58:01.693Z,15.04
2022-08-07T19:59:53.428Z,15.13
2022-08-07T20:02:28.949Z,15.12
2022-08-07T20:04:56.533Z,15.05
2022-08-07T20:07:47.855Z,14.99
2022-08-07T20:10:37.290Z,14.87
2022-08-07T20:13:22.522Z,14.76
2022-08-07T20:15:50.483Z,14.67
2022-08-07T20:18:18.157Z,14.59
2022-08-07T20:20:46.272Z,14.48
2022-08-07T20:23:40.615Z,14.41
2022-08-07T20:26:09.957Z,14.33
2022-08-07T20:28:38.025Z,14.26
2022-08-07T20:31:21.333Z,14.22
2022-08-07T20:33:50.846Z,14.15
2022-08-07T20:36:23.775Z,14.10
2022-08-07T20:39:00.868Z,14.10
2022-08-07T20:41:40.692Z,14.08
2022-08-07T20:44:10.290Z,14.03
2022-08-07T20:46:44.270Z,13.96
2022-08-07T20:49:57.867Z,13.89
2022-08-07T20:51:58.797Z,13.83
2022-08-07T20:54:30.184Z,13.77
2022-08-07T20:57:02.916Z,13.72
2022-08-07T21:00:08.102Z,13.67
2022-08-07T21:02:38.264Z,13.58
2022-08-07T21:05:10.250Z,13.48
2022-08-07T21:07:43.515Z,13.38
2022-08-07T21:10:25.145Z,13.29
2022-08-07T21:12:57.903Z,13.20
2022-08-07T21:15:47.759Z,13.13
2022-08-07T21:18:20.363Z,13.05
2022-08-07T21:20:57.434Z,13.00
2022-08-07T21:23:49.455Z,12.95
2022-08-07T21:26:42.864Z,12.90
2022-08-07T21:29:18.238Z,12.80
2022-08-07T21:32:47.429Z,12.75
2022-08-07T21:34:59.610Z,12.68
2022-08-07T21:37:57.278Z,12.58
2022-08-07T21:40:30.892Z,12.54
2022-08-07T21:43:07.632Z,12.48
2022-08-07T21:46:08.084Z,12.43
2022-08-07T21:48:55.833Z,12.39
2022-08-07T21:51:24.999Z,12.36
2022-08-07T21:53:54.056Z,12.31
2022-08-07T21:56:35.879Z,12.26
2022-08-07T21:59:06.604Z,12.23
2022-08-07T22:02:11.387Z,12.19
2022-08-07T22:04:27.957Z,12.16
2022-08-07T22:06:57.872Z,12.09
2022-08-07T22:09:31.455Z,12.04
2022-08-07T22:12:14.242Z,12.03
2022-08-07T22:14:59.893Z,12.01
2022-08-07T22:17:36.251Z,11.98
2022-08-07T22:20:26.639Z,11.93
2022-08-07T22:23:01.625Z,11.90
2022-08-07T22:25:39.385Z,11.88
2022-08-07T22:28:40.751Z,11.84
2022-08-07T22:31:45.202Z,11.82
2022-08-07T22:34:17.284Z,11.83
2022-08-07T22:37:05.614Z,11.86
2022-08-07T22:39:58.601Z,11.86
2022-08-07T22:42:29.606Z,11.85
2022-08-07T22:44:59.901Z,11.82
2022-08-07T22:47:41.136Z,11.83
2022-08-07T22:50:20.929Z,11.85
2022-08-07T22:53:15.159Z,11.87
2022-08-07T22:55:50.909Z,11.89
2022-08-07T22:58:28.932Z,11.93
2022-08-07T23:01:06.305Z,11.96
2022-08-07T23:03:57.368Z,11.94
2022-08-07T23:06:43.651Z,11.87
2022-08-07T23:10:04.562Z,11.79
2022-08-07T23:12:09.637Z,11.73
2022-08-07T23:14:47.452Z,11.67
2022-08-07T23:17:20.205Z,11.63
2022-08-07T23:20:05.112Z,11.59
2022-08-07T23:22:31.738Z,11.52
2022-08-07T23:25:16.599Z,11.50
2022-08-07T23:28:21.879Z,11.47
2022-08-07T23:31:07.079Z,11.46
2022-08-07T23:34:33.461Z,11.44
2022-08-07T23:36:32.706Z,11.40
2022-08-07T23:39:22.513Z,11.34
2022-08-07T23:42:05.038Z,11.25
2022-08-07T23:44:40.908Z,11.20
2022-08-07T23:47:19.730Z,11.16
2022-08-07T23:49:51.193Z,11.11
2022-08-07T23:53:01.819Z,11.08
2022-08-07T23:55:51.677Z,11.04
2022-08-07T23:58:18.595Z,11.01
